createdAt,value
2019-04-14T00:00:51.461Z,4.50
2019-04-14T00:03:43.298Z,4.50
2019-04-14T00:06:11.314Z,4.50
2019-04-14T00:08:39.516Z,4.50
2019-04-14T00:11:08.227Z,4.50
2019-04-14T00:13:35.610Z,4.50
2019-04-14T00:16:03.128Z,4.50
2019-04-14T00:18:31.372Z,4.50
2019-04-14T00:20:59.844Z,4.50
2019-04-14T00:23:28.223Z,4.50
2019-04-14T00:26:27.200Z,4.50
2019-04-14T00:28:56.176Z,4.50
2019-04-14T00:31:24.291Z,4.50
2019-04-14T00:33:54.294Z,4.60
2019-04-14T00:36:48.143Z,4.60
2019-04-14T00:39:20.475Z,4.70
2019-04-14T00:42:21.220Z,4.70
2019-04-14T00:45:11.561Z,4.60
2019-04-14T00:47:57.214Z,4.50
2019-04-14T00:50:18.945Z,4.50
2019-04-14T00:52:48.039Z,4.60
2019-04-14T00:55:16.492Z,4.60
2019-04-14T00:57:44.755Z,4.60
2019-04-14T01:00:16.947Z,4.60
2019-04-14T01:02:43.210Z,4.60
2019-04-14T01:05:15.085Z,4.70
2019-04-14T01:07:45.741Z,4.60
2019-04-14T01:10:14.868Z,4.70
2019-04-14T01:12:43.352Z,4.60
2019-04-14T01:15:11.797Z,4.60
2019-04-14T01:17:41.677Z,4.60
2019-04-14T01:20:12.390Z,4.80
2019-04-14T01:22:40.743Z,4.60
2019-04-14T01:25:09.056Z,4.50
2019-04-14T01:27:38.248Z,4.50
2019-04-14T01:30:08.838Z,4.60
2019-04-14T01:32:37.281Z,4.50
2019-04-14T01:35:05.483Z,4.60
2019-04-14T01:37:33.464Z,4.70
2019-04-14T01:40:01.610Z,4.60
2019-04-14T01:42:30.967Z,4.70
2019-04-14T01:44:59.454Z,4.80
2019-04-14T01:47:27.425Z,4.70
2019-04-14T01:49:55.322Z,4.80
2019-04-14T01:52:32.411Z,4.70
2019-04-14T01:55:22.876Z,4.80
2019-04-14T01:58:01.042Z,4.80
2019-04-14T02:00:46.713Z,4.70
2019-04-14T02:03:15.478Z,4.70
2019-04-14T02:05:43.749Z,4.70
2019-04-14T02:08:11.835Z,4.80
2019-04-14T02:10:41.179Z,4.80
2019-04-14T02:13:09.413Z,4.70
2019-04-14T02:15:37.563Z,4.70
2019-04-14T02:18:05.787Z,4.60
2019-04-14T02:20:33.976Z,4.70
2019-04-14T02:23:02.240Z,4.70
2019-04-14T02:25:31.659Z,4.70
2019-04-14T02:28:00.302Z,4.70
2019-04-14T02:30:36.641Z,4.70
2019-04-14T02:33:37.816Z,4.70
2019-04-14T02:41:04.311Z,4.70
2019-04-14T02:43:30.113Z,4.70
2019-04-14T02:48:44.782Z,4.60
2019-04-14T02:51:07.695Z,4.60
2019-04-14T02:53:55.161Z,4.70
2019-04-14T02:56:08.564Z,4.90
2019-04-14T02:58:40.396Z,4.70
2019-04-14T03:01:10.122Z,4.70
2019-04-14T03:03:31.754Z,4.70
2019-04-14T03:06:10.315Z,5.40
2019-04-14T03:08:45.289Z,4.70
2019-04-14T03:11:06.469Z,4.60
2019-04-14T03:13:35.123Z,4.90
2019-04-14T03:16:01.983Z,4.40
2019-04-14T03:24:30.704Z,4.30
2019-04-14T03:27:05.003Z,4.60
2019-04-14T03:29:39.250Z,4.60
2019-04-14T03:34:42.449Z,4.90
2019-04-14T03:37:31.128Z,4.60
2019-04-14T03:39:51.208Z,4.60
2019-04-14T03:42:01.612Z,4.60
2019-04-14T03:44:34.645Z,4.70
2019-04-14T03:49:32.230Z,4.60
2019-04-14T03:52:19.564Z,4.60
2019-04-14T03:54:20.164Z,4.50
2019-04-14T03:56:49.028Z,4.50
2019-04-14T03:59:17.561Z,4.50
2019-04-14T04:01:45.696Z,4.80
2019-04-14T04:04:14.395Z,4.50
2019-04-14T04:06:42.175Z,4.50
2019-04-14T04:09:10.449Z,4.50
2019-04-14T04:11:38.921Z,4.50
2019-04-14T04:14:07.438Z,4.50
2019-04-14T04:16:55.140Z,4.50
2019-04-14T04:19:49.170Z,4.50
2019-04-14T04:22:36.908Z,4.60
2019-04-14T04:25:19.021Z,4.50
2019-04-14T04:28:14.518Z,4.50
2019-04-14T04:31:04.547Z,4.40
2019-04-14T04:33:43.627Z,4.40
2019-04-14T04:36:16.029Z,4.40
2019-04-14T04:39:06.123Z,4.40
2019-04-14T04:41:33.955Z,4.30
2019-04-14T04:44:01.244Z,4.40
2019-04-14T04:46:28.780Z,4.30
2019-04-14T04:49:03.204Z,4.60
2019-04-14T04:51:24.942Z,4.40
2019-04-14T04:53:52.765Z,4.20
2019-04-14T04:56:20.797Z,4.20
2019-04-14T04:58:48.101Z,4.20
2019-04-14T05:01:15.218Z,4.20
2019-04-14T05:03:42.885Z,4.40
2019-04-14T05:06:53.155Z,4.20
2019-04-14T05:09:43.221Z,4.30
2019-04-14T05:12:41.217Z,4.20
2019-04-14T05:15:29.099Z,4.20
2019-04-14T05:18:00.440Z,4.20
2019-04-14T05:20:29.198Z,4.30
2019-04-14T05:22:57.316Z,4.30
2019-04-14T05:25:25.463Z,4.40
2019-04-14T05:27:53.794Z,4.30
2019-04-14T05:30:22.196Z,4.20
2019-04-14T05:32:50.382Z,4.30
2019-04-14T05:35:18.652Z,4.20
2019-04-14T05:37:46.863Z,4.20
2019-04-14T05:40:16.660Z,4.50
2019-04-14T05:42:45.124Z,4.00
2019-04-14T05:45:13.759Z,4.10
2019-04-14T05:47:43.567Z,4.00
2019-04-14T05:50:11.865Z,4.00
2019-04-14T05:52:40.466Z,4.40
2019-04-14T05:55:08.964Z,4.20
2019-04-14T05:57:37.346Z,4.20
2019-04-14T06:00:10.552Z,4.10
2019-04-14T06:02:39.905Z,4.20
2019-04-14T06:05:09.156Z,4.20
2019-04-14T06:07:38.356Z,4.20
2019-04-14T06:10:06.926Z,4.20
2019-04-14T06:12:34.952Z,4.30
2019-04-14T06:15:04.512Z,4.20
2019-04-14T06:17:32.540Z,4.20
2019-04-14T06:20:00.690Z,4.20
2019-04-14T06:22:29.079Z,4.30
2019-04-14T06:24:57.163Z,4.30
2019-04-14T06:27:25.507Z,4.50
2019-04-14T06:29:57.460Z,4.40
2019-04-14T06:32:31.118Z,4.40
2019-04-14T06:35:18.299Z,4.40
2019-04-14T06:37:56.289Z,4.40
2019-04-14T06:40:25.286Z,4.40
2019-04-14T06:42:53.225Z,4.70
2019-04-14T06:45:21.619Z,4.50
2019-04-14T06:47:49.624Z,4.40
2019-04-14T06:50:19.855Z,5.00
2019-04-14T06:52:48.218Z,4.50
2019-04-14T06:55:16.641Z,4.90
2019-04-14T06:57:45.754Z,4.60
2019-04-14T07:00:13.958Z,4.70
2019-04-14T07:02:42.224Z,4.80
2019-04-14T07:05:10.549Z,4.80
2019-04-14T07:07:39.030Z,4.70
2019-04-14T07:10:07.506Z,4.80
2019-04-14T07:12:35.583Z,4.90
2019-04-14T07:15:04.708Z,5.00
2019-04-14T07:17:32.775Z,5.20
2019-04-14T07:20:02.406Z,5.30
2019-04-14T07:22:30.941Z,5.50
2019-04-14T07:25:00.078Z,5.60
2019-04-14T07:27:28.049Z,5.80
2019-04-14T07:30:28.050Z,5.90
2019-04-14T07:33:23.504Z,6.20
2019-04-14T07:35:58.685Z,6.30
2019-04-14T07:38:32.494Z,6.30
2019-04-14T07:41:22.502Z,6.70
2019-04-14T07:44:00.072Z,6.30
2019-04-14T07:46:42.786Z,6.00
2019-04-14T07:49:48.431Z,6.20
2019-04-14T07:52:32.265Z,6.50
2019-04-14T07:55:31.278Z,6.30
2019-04-14T07:58:12.058Z,6.80
2019-04-14T08:00:57.646Z,6.80
2019-04-14T08:03:34.724Z,7.80
2019-04-14T08:06:02.863Z,9.70
2019-04-14T08:08:30.319Z,11.30
2019-04-14T08:10:58.003Z,12.60
2019-04-14T08:13:26.778Z,13.80
2019-04-14T08:15:54.457Z,15.20
2019-04-14T08:18:22.003Z,15.30
2019-04-14T08:20:50.182Z,15.80
2019-04-14T08:23:18.065Z,16.20
2019-04-14T08:25:45.711Z,16.00
2019-04-14T08:28:13.469Z,15.30
2019-04-14T08:30:41.415Z,14.70
2019-04-14T08:33:09.624Z,13.90
2019-04-14T08:35:37.005Z,12.70
2019-04-14T08:38:05.574Z,11.70
2019-04-14T08:40:33.258Z,11.00
2019-04-14T08:43:16.526Z,10.50
2019-04-14T08:45:50.927Z,10.60
2019-04-14T08:48:40.643Z,9.70
2019-04-14T08:51:15.202Z,9.60
2019-04-14T08:53:46.279Z,9.30
2019-04-14T08:56:18.213Z,9.40
2019-04-14T08:59:20.983Z,9.00
2019-04-14T09:01:57.179Z,8.90
2019-04-14T09:04:33.448Z,9.00
2019-04-14T09:07:33.426Z,8.90
2019-04-14T09:10:14.619Z,8.90
2019-04-14T09:12:42.654Z,8.80
2019-04-14T09:15:09.949Z,9.30
2019-04-14T09:17:37.154Z,9.40
2019-04-14T09:20:04.726Z,9.20
2019-04-14T09:22:32.796Z,9.10
2019-04-14T09:25:00.076Z,9.30
2019-04-14T09:27:28.126Z,9.30
2019-04-14T09:29:55.758Z,9.40
2019-04-14T09:32:23.877Z,9.20
2019-04-14T09:34:51.990Z,9.40
2019-04-14T09:37:19.585Z,9.50
2019-04-14T09:39:48.574Z,9.50
2019-04-14T09:42:17.849Z,9.60
2019-04-14T09:44:46.423Z,9.90
2019-04-14T09:47:14.434Z,9.40
2019-04-14T09:49:53.158Z,9.70
2019-04-14T09:52:21.132Z,9.90
2019-04-14T09:54:48.691Z,10.20
2019-04-14T09:57:16.859Z,9.80
2019-04-14T09:59:49.598Z,10.10
2019-04-14T10:02:17.131Z,10.50
2019-04-14T10:04:45.026Z,10.20
2019-04-14T10:07:13.244Z,10.60
2019-04-14T10:09:43.729Z,10.30
2019-04-14T10:12:11.559Z,10.60
2019-04-14T10:14:38.511Z,10.80
2019-04-14T10:17:05.477Z,11.00
2019-04-14T10:19:32.574Z,11.10
2019-04-14T10:21:59.720Z,11.10
2019-04-14T10:24:31.828Z,11.20
2019-04-14T10:26:58.902Z,11.30
2019-04-14T10:29:25.991Z,11.60
2019-04-14T10:31:53.472Z,11.30
2019-04-14T10:34:20.491Z,11.40
2019-04-14T10:36:54.500Z,11.30
2019-04-14T10:39:22.334Z,11.60
2019-04-14T10:41:49.788Z,11.50
2019-04-14T10:44:18.007Z,11.70
2019-04-14T10:46:45.940Z,11.80
2019-04-14T10:49:13.542Z,11.90
2019-04-14T10:51:42.663Z,11.90
2019-04-14T10:54:11.840Z,11.60
2019-04-14T10:56:40.747Z,11.50
2019-04-14T10:59:09.991Z,11.40
2019-04-14T11:01:37.124Z,11.30
2019-04-14T11:04:07.915Z,11.20
2019-04-14T11:06:39.009Z,11.20
2019-04-14T11:09:14.052Z,11.20
2019-04-14T11:11:43.182Z,11.20
2019-04-14T11:14:11.970Z,11.40
2019-04-14T11:16:40.475Z,11.20
2019-04-14T11:19:07.763Z,11.40
2019-04-14T11:21:42.608Z,11.40
2019-04-14T11:24:10.384Z,11.50
2019-04-14T11:26:39.048Z,11.70
2019-04-14T11:29:08.383Z,11.80
2019-04-14T11:31:54.291Z,11.90
2019-04-14T11:34:25.660Z,12.20
2019-04-14T11:37:14.129Z,12.10
2019-04-14T11:39:42.564Z,12.20
2019-04-14T11:42:10.530Z,11.90
2019-04-14T11:44:42.793Z,12.00
2019-04-14T11:47:11.663Z,11.90
2019-04-14T11:49:40.096Z,12.10
2019-04-14T11:52:08.962Z,11.90
2019-04-14T11:54:38.004Z,12.00
2019-04-14T11:57:06.862Z,12.00
2019-04-14T11:59:51.197Z,12.10
2019-04-14T12:02:23.704Z,12.20
2019-04-14T12:04:56.170Z,12.20
2019-04-14T12:07:48.273Z,12.20
2019-04-14T12:10:18.415Z,12.20
2019-04-14T12:12:50.551Z,12.20
2019-04-14T12:15:18.197Z,12.30
2019-04-14T12:17:46.348Z,12.20
2019-04-14T12:20:13.762Z,12.10
2019-04-14T12:22:41.980Z,12.20
2019-04-14T12:25:10.134Z,12.30
2019-04-14T12:27:38.066Z,12.50
2019-04-14T12:30:13.766Z,12.50
2019-04-14T12:32:41.716Z,12.50
2019-04-14T12:35:14.646Z,12.70
2019-04-14T12:37:41.956Z,12.60
2019-04-14T12:40:10.525Z,12.30
2019-04-14T12:43:06.243Z,12.10
2019-04-14T12:45:55.699Z,12.20
2019-04-14T12:48:46.446Z,12.50
2019-04-14T12:51:20.644Z,12.20
2019-04-14T12:53:48.944Z,12.20
2019-04-14T12:56:25.590Z,12.30
2019-04-14T12:59:16.701Z,12.20
2019-04-14T13:02:23.784Z,12.10
2019-04-14T13:04:51.246Z,12.00
2019-04-14T13:07:20.217Z,11.90
2019-04-14T13:09:50.580Z,12.00
2019-04-14T13:12:17.890Z,11.90
2019-04-14T13:14:45.319Z,12.10
2019-04-14T13:17:13.714Z,12.00
2019-04-14T13:19:41.628Z,12.10
2019-04-14T13:22:09.370Z,12.10
2019-04-14T13:24:36.526Z,12.10
2019-04-14T13:27:04.462Z,12.10
2019-04-14T13:29:32.629Z,12.00
2019-04-14T13:31:59.683Z,12.00
2019-04-14T13:34:29.882Z,11.90
2019-04-14T13:36:59.210Z,11.80
2019-04-14T13:39:26.564Z,11.80
2019-04-14T13:41:53.911Z,11.80
2019-04-14T13:44:27.341Z,11.90
2019-04-14T13:46:57.920Z,11.80
2019-04-14T13:49:25.413Z,12.00
2019-04-14T13:51:52.740Z,11.90
2019-04-14T13:54:20.114Z,11.90
2019-04-14T13:56:47.812Z,11.80
2019-04-14T13:59:15.051Z,11.80
2019-04-14T14:01:47.444Z,11.80
2019-04-14T14:04:14.497Z,11.60
2019-04-14T14:06:41.781Z,11.80
2019-04-14T14:09:11.637Z,12.00
2019-04-14T14:12:01.205Z,11.80
2019-04-14T14:14:51.022Z,11.90
2019-04-14T14:17:30.803Z,11.80
2019-04-14T14:20:06.011Z,11.70
2019-04-14T14:22:38.050Z,11.70
2019-04-14T14:25:19.982Z,11.70
2019-04-14T14:27:47.374Z,11.60
2019-04-14T14:30:17.425Z,11.60
2019-04-14T14:32:44.538Z,11.50
2019-04-14T14:35:12.219Z,11.40
2019-04-14T14:37:39.171Z,11.30
2019-04-14T14:40:06.838Z,11.30
2019-04-14T14:42:33.921Z,11.30
2019-04-14T14:45:32.703Z,11.40
2019-04-14T14:48:11.632Z,11.60
2019-04-14T14:50:51.956Z,11.70
2019-04-14T14:53:22.107Z,11.80
2019-04-14T14:55:48.313Z,11.60
2019-04-14T14:58:15.905Z,11.80
2019-04-14T15:00:43.938Z,11.40
2019-04-14T15:03:11.675Z,11.30
2019-04-14T15:05:38.852Z,11.40
2019-04-14T15:08:06.025Z,11.30
2019-04-14T15:10:37.330Z,11.30
2019-04-14T15:13:04.974Z,11.40
2019-04-14T15:15:32.149Z,11.30
2019-04-14T15:17:59.942Z,11.50
2019-04-14T15:20:27.398Z,11.80
2019-04-14T15:22:55.578Z,11.40
2019-04-14T15:25:22.759Z,11.30
2019-04-14T15:27:50.671Z,11.20
2019-04-14T15:30:20.116Z,11.20
2019-04-14T15:32:48.161Z,11.20
2019-04-14T15:35:15.841Z,11.10
2019-04-14T15:37:44.160Z,11.00
2019-04-14T15:40:14.047Z,11.00
2019-04-14T15:42:41.899Z,11.10
2019-04-14T15:45:10.154Z,11.10
2019-04-14T15:47:37.525Z,11.10
2019-04-14T15:50:05.933Z,11.00
2019-04-14T15:52:36.948Z,11.10
2019-04-14T15:55:04.405Z,11.00
2019-04-14T15:57:50.194Z,10.90
2019-04-14T16:00:33.894Z,10.90
2019-04-14T16:03:36.219Z,10.90
2019-04-14T16:06:10.378Z,11.10
2019-04-14T16:08:46.946Z,10.80
2019-04-14T16:11:31.052Z,10.70
2019-04-14T16:14:22.456Z,10.80
2019-04-14T16:17:31.799Z,10.70
2019-04-14T16:20:04.385Z,10.70
2019-04-14T16:22:31.628Z,10.80
2019-04-14T16:25:03.594Z,10.90
2019-04-14T16:27:42.923Z,10.80
2019-04-14T16:30:22.307Z,10.80
2019-04-14T16:33:16.808Z,10.90
2019-04-14T16:35:45.958Z,10.70
2019-04-14T16:38:14.335Z,10.90
2019-04-14T16:40:43.374Z,10.50
2019-04-14T16:43:11.827Z,10.40
2019-04-14T16:45:44.487Z,10.40
2019-04-14T16:48:13.390Z,10.30
2019-04-14T16:50:41.426Z,10.30
2019-04-14T16:53:31.427Z,10.40
2019-04-14T16:56:05.587Z,10.30
2019-04-14T16:58:42.259Z,10.30
2019-04-14T17:01:12.916Z,10.20
2019-04-14T17:03:40.206Z,10.00
2019-04-14T17:06:07.691Z,10.00
2019-04-14T17:08:35.451Z,10.00
2019-04-14T17:11:03.118Z,10.00
2019-04-14T17:13:33.826Z,10.00
2019-04-14T17:16:20.221Z,10.00
2019-04-14T17:19:07.859Z,10.00
2019-04-14T17:21:58.150Z,10.00
2019-04-14T17:24:43.841Z,9.90
2019-04-14T17:27:30.140Z,9.80
2019-04-14T17:30:09.273Z,9.90
2019-04-14T17:32:42.474Z,9.70
2019-04-14T17:35:27.334Z,9.70
2019-04-14T17:38:07.587Z,9.70
2019-04-14T17:41:04.745Z,9.60
2019-04-14T17:43:40.541Z,9.60
2019-04-14T17:46:21.163Z,9.60
2019-04-14T17:49:17.514Z,9.50
2019-04-14T17:52:06.642Z,9.50
2019-04-14T17:55:13.443Z,9.50
2019-04-14T17:58:13.059Z,9.40
2019-04-14T18:00:59.603Z,9.40
2019-04-14T18:03:33.195Z,9.40
2019-04-14T18:06:06.073Z,9.30
2019-04-14T18:09:04.837Z,9.30
2019-04-14T18:12:01.826Z,9.30
2019-04-14T18:14:41.334Z,9.40
2019-04-14T18:17:25.190Z,9.40
2019-04-14T18:20:00.253Z,9.40
2019-04-14T18:22:28.223Z,9.20
2019-04-14T18:24:57.328Z,9.10
2019-04-14T18:27:25.291Z,9.10
2019-04-14T18:29:58.718Z,9.40
2019-04-14T18:32:35.605Z,9.70
2019-04-14T18:35:22.882Z,9.10
2019-04-14T18:38:08.217Z,9.10
2019-04-14T18:40:57.757Z,9.10
2019-04-14T18:43:44.423Z,9.40
2019-04-14T18:46:30.818Z,9.00
2019-04-14T18:49:04.155Z,9.00
2019-04-14T18:51:50.102Z,9.00
2019-04-14T18:54:28.233Z,8.90
2019-04-14T18:57:15.823Z,8.90
2019-04-14T18:59:48.449Z,8.90
2019-04-14T19:02:18.122Z,8.80
2019-04-14T19:04:46.183Z,8.80
2019-04-14T19:07:14.427Z,8.90
2019-04-14T19:09:42.571Z,8.60
2019-04-14T19:12:30.391Z,8.70
2019-04-14T19:15:09.504Z,8.50
2019-04-14T19:17:53.489Z,8.50
2019-04-14T19:20:21.676Z,8.50
2019-04-14T19:22:49.938Z,8.30
2019-04-14T19:25:24.775Z,8.40
2019-04-14T19:27:53.168Z,8.40
2019-04-14T19:30:21.405Z,8.40
2019-04-14T19:32:49.488Z,8.40
2019-04-14T19:35:17.759Z,8.40
2019-04-14T19:37:46.134Z,8.50
2019-04-14T19:40:14.413Z,8.40
2019-04-14T19:42:42.919Z,8.30
2019-04-14T19:45:12.907Z,8.30
2019-04-14T19:47:41.079Z,8.30
2019-04-14T19:50:09.385Z,8.30
2019-04-14T19:52:37.595Z,8.30
2019-04-14T19:55:06.066Z,8.30
2019-04-14T19:57:34.150Z,8.60
2019-04-14T20:00:03.115Z,8.30
2019-04-14T20:02:31.372Z,8.20
2019-04-14T20:04:59.693Z,8.10
2019-04-14T20:07:27.909Z,8.00
2019-04-14T20:09:56.525Z,8.10
2019-04-14T20:12:25.095Z,8.10
2019-04-14T20:14:53.224Z,8.30
2019-04-14T20:17:39.930Z,8.10
2019-04-14T20:20:33.475Z,8.10
2019-04-14T20:23:21.550Z,8.10
2019-04-14T20:26:03.238Z,8.10
2019-04-14T20:28:43.029Z,8.00
2019-04-14T20:31:27.998Z,8.40
2019-04-14T20:33:59.188Z,8.10
2019-04-14T20:36:27.144Z,8.10
2019-04-14T20:38:58.586Z,8.20
2019-04-14T20:41:26.567Z,8.10
2019-04-14T20:43:54.711Z,8.20
2019-04-14T20:46:22.845Z,7.80
2019-04-14T20:48:50.775Z,8.10
2019-04-14T20:51:22.234Z,8.00
2019-04-14T20:53:52.194Z,8.10
2019-04-14T20:56:19.434Z,8.10
2019-04-14T20:58:46.592Z,8.20
2019-04-14T21:01:14.448Z,8.50
2019-04-14T21:04:07.388Z,8.10
2019-04-14T21:06:55.313Z,8.70
2019-04-14T21:09:42.356Z,8.10
2019-04-14T21:12:20.668Z,8.00
2019-04-14T21:15:14.331Z,8.10
2019-04-14T21:18:00.933Z,8.00
2019-04-14T21:21:06.591Z,8.00
2019-04-14T21:23:50.967Z,7.90
2019-04-14T21:26:34.190Z,7.90
2019-04-14T21:29:09.348Z,7.80
2019-04-14T21:31:42.462Z,7.80
2019-04-14T21:34:17.909Z,7.70
2019-04-14T21:37:06.310Z,7.90
2019-04-14T21:39:54.151Z,7.90
2019-04-14T21:42:22.173Z,7.80
2019-04-14T21:44:50.139Z,7.80
2019-04-14T21:47:18.190Z,8.30
2019-04-14T21:49:46.279Z,7.80
2019-04-14T21:52:33.988Z,7.70
2019-04-14T21:55:02.458Z,7.90
2019-04-14T21:57:52.830Z,7.90
2019-04-14T22:00:57.415Z,7.90
2019-04-14T22:03:34.322Z,7.90
2019-04-14T22:06:12.235Z,7.70
2019-04-14T22:08:44.803Z,8.00
2019-04-14T22:11:17.465Z,7.70
2019-04-14T22:13:45.570Z,7.60
2019-04-14T22:16:13.710Z,7.50
2019-04-14T22:18:41.895Z,7.70
2019-04-14T22:21:10.077Z,7.70
2019-04-14T22:23:38.192Z,7.60
2019-04-14T22:26:07.090Z,7.60
2019-04-14T22:28:35.344Z,7.60
2019-04-14T22:31:03.706Z,7.70
2019-04-14T22:33:32.152Z,7.70
2019-04-14T22:36:00.349Z,7.50
2019-04-14T22:38:28.328Z,7.40
2019-04-14T22:40:56.408Z,7.40
2019-04-14T22:43:24.343Z,7.50
2019-04-14T22:45:52.789Z,7.30
2019-04-14T22:48:21.004Z,7.30
2019-04-14T22:50:49.246Z,7.30
2019-04-14T22:53:17.339Z,7.40
2019-04-14T22:55:45.489Z,7.30
2019-04-14T22:58:13.734Z,7.40
2019-04-14T23:00:55.230Z,7.40
2019-04-14T23:03:40.479Z,7.40
2019-04-14T23:06:33.690Z,7.30
2019-04-14T23:09:15.653Z,7.60
2019-04-14T23:11:52.724Z,7.20
2019-04-14T23:14:27.790Z,7.20
2019-04-14T23:17:17.135Z,7.30
2019-04-14T23:19:48.665Z,7.30
2019-04-14T23:22:22.187Z,7.90
2019-04-14T23:24:50.209Z,7.30
2019-04-14T23:27:18.258Z,7.40
2019-04-14T23:29:46.228Z,7.40
2019-04-14T23:32:14.587Z,7.40
2019-04-14T23:34:43.443Z,7.40
2019-04-14T23:37:12.188Z,7.40
2019-04-14T23:39:40.562Z,7.40
2019-04-14T23:42:09.396Z,7.40
2019-04-14T23:44:37.894Z,7.40
2019-04-14T23:47:06.818Z,7.50
2019-04-14T23:49:36.135Z,7.50
2019-04-14T23:52:03.292Z,7.40
2019-04-14T23:54:34.682Z,7.40
2019-04-14T23:57:06.023Z,7.30
2019-04-14T23:59:33.389Z,7.30
